createdAt,value
2018-08-27T00:00:20.098Z,6.14
2018-08-27T00:01:19.967Z,6.22
2018-08-27T00:02:19.841Z,6.16
2018-08-27T00:03:19.717Z,6.22
2018-08-27T00:04:19.586Z,6.21
2018-08-27T00:05:19.457Z,6.25
2018-08-27T00:06:19.337Z,6.28
2018-08-27T00:07:19.212Z,6.19
2018-08-27T00:08:19.071Z,6.09
2018-08-27T00:09:18.941Z,6.18
2018-08-27T00:10:18.821Z,6.11
2018-08-27T00:11:18.687Z,6.10
2018-08-27T00:12:18.558Z,6.13
2018-08-27T00:13:18.431Z,6.18
2018-08-27T00:14:18.303Z,6.11
2018-08-27T00:15:18.177Z,6.14
2018-08-27T00:16:18.049Z,6.22
2018-08-27T00:17:17.917Z,6.13
2018-08-27T00:18:17.794Z,6.14
2018-08-27T00:19:17.687Z,6.30
2018-08-27T00:20:17.535Z,6.28
2018-08-27T00:21:17.407Z,6.21
2018-08-27T00:22:17.277Z,6.26
2018-08-27T00:23:17.151Z,6.10
2018-08-27T00:24:17.018Z,6.16
2018-08-27T00:25:16.892Z,6.11
2018-08-27T00:26:16.763Z,6.29
2018-08-27T00:27:16.634Z,6.26
2018-08-27T00:28:16.507Z,6.25
2018-08-27T00:29:16.377Z,6.25
2018-08-27T00:30:16.248Z,6.28
2018-08-27T00:31:16.123Z,6.28
2018-08-27T00:32:15.992Z,6.14
2018-08-27T00:33:15.867Z,6.28
2018-08-27T00:34:15.738Z,6.32
2018-08-27T00:35:15.610Z,6.29
2018-08-27T00:36:15.482Z,6.25
2018-08-27T00:37:15.353Z,6.33
2018-08-27T00:38:15.226Z,6.25
2018-08-27T00:39:15.097Z,6.14
2018-08-27T00:40:14.971Z,6.11
2018-08-27T00:41:14.843Z,6.07
2018-08-27T00:42:14.713Z,6.00
2018-08-27T00:43:14.586Z,6.07
2018-08-27T00:44:14.457Z,6.11
2018-08-27T00:45:14.328Z,6.13
2018-08-27T00:46:14.201Z,6.06
2018-08-27T00:47:14.074Z,6.01
2018-08-27T00:48:13.944Z,6.07
2018-08-27T00:49:13.819Z,6.11
2018-08-27T00:50:13.687Z,6.13
2018-08-27T00:51:13.559Z,6.04
2018-08-27T00:52:13.435Z,6.06
2018-08-27T00:53:13.306Z,5.95
2018-08-27T00:54:13.176Z,6.01
2018-08-27T00:55:13.049Z,5.91
2018-08-27T00:56:12.919Z,5.86
2018-08-27T00:57:12.792Z,5.78
2018-08-27T00:58:12.664Z,5.83
2018-08-27T00:59:12.536Z,5.74
2018-08-27T01:00:12.406Z,5.81
2018-08-27T01:01:12.280Z,5.93
2018-08-27T01:02:12.149Z,5.86
2018-08-27T01:03:12.022Z,6.00
2018-08-27T01:04:11.894Z,6.07
2018-08-27T01:05:11.768Z,6.14
2018-08-27T01:06:11.642Z,6.14
2018-08-27T01:07:11.511Z,6.26
2018-08-27T01:08:11.382Z,6.29
2018-08-27T01:09:11.254Z,6.32
2018-08-27T01:10:11.128Z,6.38
2018-08-27T01:11:10.996Z,6.35
2018-08-27T01:12:10.869Z,6.30
2018-08-27T01:13:10.738Z,6.38
2018-08-27T01:14:10.617Z,6.35
2018-08-27T01:15:10.487Z,6.51
2018-08-27T01:16:10.356Z,6.44
2018-08-27T01:17:10.225Z,6.53
2018-08-27T01:18:10.100Z,6.46
2018-08-27T01:19:09.970Z,6.50
2018-08-27T01:20:09.842Z,6.53
2018-08-27T01:21:09.721Z,6.54
2018-08-27T01:22:09.589Z,6.54
2018-08-27T01:23:09.460Z,6.58
2018-08-27T01:24:09.330Z,6.58
2018-08-27T01:25:09.203Z,6.58
2018-08-27T01:26:09.077Z,6.65
2018-08-27T01:27:08.947Z,6.59
2018-08-27T01:28:08.820Z,6.58
2018-08-27T01:29:08.694Z,6.69
2018-08-27T01:30:08.566Z,6.63
2018-08-27T01:31:08.435Z,6.61
2018-08-27T01:32:08.311Z,6.63
2018-08-27T01:33:08.182Z,6.63
2018-08-27T01:34:08.053Z,6.61
2018-08-27T01:35:07.926Z,6.65
2018-08-27T01:36:07.797Z,6.69
2018-08-27T01:37:07.671Z,6.72
2018-08-27T01:38:07.542Z,6.79
2018-08-27T01:39:07.414Z,6.73
2018-08-27T01:40:07.288Z,6.81
2018-08-27T01:41:07.162Z,6.76
2018-08-27T01:42:07.031Z,6.81
2018-08-27T01:43:06.905Z,6.76
2018-08-27T01:44:06.778Z,6.81
2018-08-27T01:45:06.650Z,6.91
2018-08-27T01:46:06.523Z,6.89
2018-08-27T01:47:06.397Z,6.90
2018-08-27T01:48:06.268Z,6.94
2018-08-27T01:49:06.142Z,6.94
2018-08-27T01:50:06.014Z,7.04
2018-08-27T01:51:05.901Z,6.98
2018-08-27T01:52:05.757Z,6.99
2018-08-27T01:53:05.630Z,7.01
2018-08-27T01:54:05.503Z,6.94
2018-08-27T01:55:05.375Z,7.01
2018-08-27T01:56:05.247Z,7.08
2018-08-27T01:57:05.120Z,7.04
2018-08-27T01:58:04.993Z,7.05
2018-08-27T01:59:04.870Z,7.13
2018-08-27T02:00:04.738Z,7.08
2018-08-27T02:01:04.611Z,7.08
2018-08-27T02:02:04.484Z,7.13
2018-08-27T02:03:04.355Z,7.08
2018-08-27T02:04:04.230Z,7.16
2018-08-27T02:05:04.101Z,7.05
2018-08-27T02:06:03.973Z,6.99
2018-08-27T02:07:03.847Z,7.08
2018-08-27T02:08:03.724Z,7.13
2018-08-27T02:09:03.593Z,7.08
2018-08-27T02:10:03.464Z,7.13
2018-08-27T02:11:03.336Z,7.12
2018-08-27T02:12:03.209Z,7.20
2018-08-27T02:13:03.079Z,7.12
2018-08-27T02:14:02.953Z,7.13
2018-08-27T02:15:02.828Z,7.12
2018-08-27T02:16:02.701Z,7.13
2018-08-27T02:17:02.572Z,7.16
2018-08-27T02:18:02.449Z,7.16
2018-08-27T02:19:02.318Z,7.13
2018-08-27T02:20:02.195Z,7.08
2018-08-27T02:21:02.134Z,7.08
2018-08-27T02:22:01.935Z,7.04
2018-08-27T02:23:01.810Z,7.04
2018-08-27T02:24:01.680Z,7.15
2018-08-27T02:25:01.559Z,7.15
2018-08-27T02:26:01.503Z,7.15
2018-08-27T02:27:01.297Z,7.19
2018-08-27T02:28:01.173Z,7.23
2018-08-27T02:29:01.041Z,7.22
2018-08-27T02:30:00.918Z,7.29
2018-08-27T02:31:00.790Z,7.17
2018-08-27T02:32:00.663Z,7.31
2018-08-27T02:33:00.534Z,7.32
2018-08-27T02:34:00.410Z,7.32
2018-08-27T02:35:00.332Z,7.34
2018-08-27T02:36:00.154Z,7.35
2018-08-27T02:37:00.024Z,7.35
2018-08-27T02:37:59.899Z,7.37
2018-08-27T02:38:59.771Z,7.37
2018-08-27T02:39:59.648Z,7.31
2018-08-27T02:40:59.516Z,7.35
2018-08-27T02:41:59.389Z,7.29
2018-08-27T02:42:59.263Z,7.32
2018-08-27T02:43:59.135Z,7.32
2018-08-27T02:44:59.007Z,7.35
2018-08-27T02:45:58.882Z,7.34
2018-08-27T02:46:58.755Z,7.29
2018-08-27T02:47:58.628Z,7.32
2018-08-27T02:48:58.504Z,7.35
2018-08-27T02:49:58.374Z,7.42
2018-08-27T02:50:58.247Z,7.50
2018-08-27T02:51:58.130Z,7.45
2018-08-27T02:52:57.995Z,7.45
2018-08-27T02:53:57.863Z,7.49
2018-08-27T02:54:57.736Z,7.53
2018-08-27T02:55:57.609Z,7.50
2018-08-27T02:56:57.483Z,7.50
2018-08-27T02:57:57.355Z,7.52
2018-08-27T02:58:57.227Z,7.53
2018-08-27T02:59:57.101Z,7.53
2018-08-27T03:00:56.970Z,7.55
2018-08-27T03:01:56.845Z,7.44
2018-08-27T03:02:56.720Z,7.52
2018-08-27T03:03:56.592Z,7.49
2018-08-27T03:04:56.466Z,7.59
2018-08-27T03:05:56.336Z,7.55
2018-08-27T03:06:56.208Z,7.56
2018-08-27T03:07:56.083Z,7.69
2018-08-27T03:08:55.956Z,7.62
2018-08-27T03:09:55.826Z,7.69
2018-08-27T03:10:55.699Z,7.74
2018-08-27T03:11:55.574Z,7.67
2018-08-27T03:12:55.446Z,7.72
2018-08-27T03:13:55.318Z,7.74
2018-08-27T03:14:55.189Z,7.79
2018-08-27T03:15:55.067Z,7.75
2018-08-27T03:16:54.936Z,7.79
2018-08-27T03:17:54.808Z,7.82
2018-08-27T03:18:54.681Z,7.75
2018-08-27T03:19:54.555Z,7.72
2018-08-27T03:20:54.429Z,7.82
2018-08-27T03:21:54.300Z,7.69
2018-08-27T03:22:54.174Z,7.59
2018-08-27T03:23:54.046Z,7.42
2018-08-27T03:24:53.977Z,7.32
2018-08-27T03:25:53.791Z,7.38
2018-08-27T03:26:53.667Z,7.31
2018-08-27T03:27:53.539Z,7.34
2018-08-27T03:28:53.411Z,7.22
2018-08-27T03:29:53.282Z,7.32
2018-08-27T03:30:53.155Z,7.32
2018-08-27T03:31:53.035Z,7.37
2018-08-27T03:32:52.899Z,7.37
2018-08-27T03:33:52.772Z,7.45
2018-08-27T03:34:52.647Z,7.53
2018-08-27T03:35:52.521Z,7.47
2018-08-27T03:36:52.389Z,7.50
2018-08-27T03:37:52.263Z,7.59
2018-08-27T03:38:52.138Z,7.63
2018-08-27T03:39:52.010Z,7.69
2018-08-27T03:40:51.883Z,7.74
2018-08-27T03:41:51.757Z,7.77
2018-08-27T03:42:51.628Z,7.79
2018-08-27T03:43:51.501Z,7.77
2018-08-27T03:44:51.375Z,7.84
2018-08-27T03:45:51.251Z,7.90
2018-08-27T03:46:51.120Z,7.85
2018-08-27T03:47:50.992Z,7.82
2018-08-27T03:48:50.864Z,7.90
2018-08-27T03:49:50.740Z,7.85
2018-08-27T03:50:50.615Z,7.85
2018-08-27T03:51:50.487Z,7.93
2018-08-27T03:52:50.359Z,7.85
2018-08-27T03:53:50.231Z,7.81
2018-08-27T03:54:50.106Z,7.79
2018-08-27T03:55:49.975Z,7.85
2018-08-27T03:56:49.847Z,7.81
2018-08-27T03:57:49.725Z,7.85
2018-08-27T03:58:49.593Z,7.81
2018-08-27T03:59:49.470Z,7.82
2018-08-27T04:00:49.341Z,7.79
2018-08-27T04:01:49.211Z,7.78
2018-08-27T04:02:49.086Z,7.63
2018-08-27T04:03:48.960Z,7.71
2018-08-27T04:04:48.829Z,7.62
2018-08-27T04:05:48.704Z,7.62
2018-08-27T04:06:48.579Z,7.59
2018-08-27T04:07:48.448Z,7.66
2018-08-27T04:08:48.320Z,7.67
2018-08-27T04:09:48.195Z,7.66
2018-08-27T04:10:48.068Z,7.67
2018-08-27T04:11:47.941Z,7.62
2018-08-27T04:12:47.814Z,7.66
2018-08-27T04:13:47.685Z,7.60
2018-08-27T04:14:47.559Z,7.69
2018-08-27T04:15:47.432Z,7.63
2018-08-27T04:16:47.304Z,7.63
2018-08-27T04:17:47.177Z,7.72
2018-08-27T04:18:47.071Z,7.67
2018-08-27T04:19:46.923Z,7.77
2018-08-27T04:20:46.797Z,7.71
2018-08-27T04:21:46.671Z,7.60
2018-08-27T04:22:46.541Z,7.77
2018-08-27T04:23:46.415Z,7.63
2018-08-27T04:24:46.289Z,7.75
2018-08-27T04:25:46.162Z,7.75
2018-08-27T04:26:46.034Z,7.78
2018-08-27T04:27:45.907Z,7.82
2018-08-27T04:28:45.869Z,7.81
2018-08-27T04:29:45.652Z,7.78
2018-08-27T04:30:45.528Z,7.79
2018-08-27T04:31:45.402Z,7.79
2018-08-27T04:32:45.271Z,7.82
2018-08-27T04:33:45.146Z,7.82
2018-08-27T04:34:45.032Z,7.78
2018-08-27T04:35:44.890Z,7.79
2018-08-27T04:36:44.764Z,7.79
2018-08-27T04:37:44.636Z,7.78
2018-08-27T04:38:44.515Z,7.82
2018-08-27T04:39:44.383Z,7.81
2018-08-27T04:40:44.259Z,7.77
2018-08-27T04:41:44.203Z,7.82
2018-08-27T04:42:44.093Z,7.81
2018-08-27T04:43:43.877Z,7.81
2018-08-27T04:44:43.749Z,7.75
2018-08-27T04:45:43.622Z,7.67
2018-08-27T04:46:43.505Z,7.60
2018-08-27T04:47:43.372Z,7.62
2018-08-27T04:48:43.245Z,7.69
2018-08-27T04:49:43.115Z,7.59
2018-08-27T04:50:42.989Z,7.66
2018-08-27T04:51:42.860Z,7.67
2018-08-27T04:52:42.734Z,7.62
2018-08-27T04:53:42.607Z,7.59
2018-08-27T04:54:42.480Z,7.66
2018-08-27T04:55:42.353Z,7.67
2018-08-27T04:56:42.227Z,7.71
2018-08-27T04:57:42.103Z,7.74
2018-08-27T04:58:41.973Z,7.67
2018-08-27T04:59:41.844Z,7.77
2018-08-27T05:00:41.716Z,7.78
2018-08-27T05:01:41.592Z,7.75
2018-08-27T05:02:41.462Z,7.62
2018-08-27T05:03:41.337Z,7.67
2018-08-27T05:04:41.208Z,7.77
2018-08-27T05:05:41.082Z,7.67
2018-08-27T05:06:40.964Z,7.77
2018-08-27T05:07:40.827Z,7.69
2018-08-27T05:08:40.702Z,7.75
2018-08-27T05:09:40.573Z,7.62
2018-08-27T05:10:40.447Z,7.66
2018-08-27T05:11:40.321Z,7.72
2018-08-27T05:12:40.209Z,7.75
2018-08-27T05:13:40.065Z,7.72
2018-08-27T05:14:39.937Z,7.79
2018-08-27T05:15:39.813Z,7.72
2018-08-27T05:16:39.692Z,7.81
2018-08-27T05:17:39.557Z,7.81
2018-08-27T05:18:39.428Z,7.79
2018-08-27T05:19:39.307Z,7.87
2018-08-27T05:20:39.173Z,7.89
2018-08-27T05:21:39.047Z,7.93
2018-08-27T05:22:38.923Z,7.92
2018-08-27T05:23:38.790Z,7.99
2018-08-27T05:24:38.665Z,7.94
2018-08-27T05:25:38.540Z,7.92
2018-08-27T05:26:38.411Z,7.90
2018-08-27T05:27:38.281Z,8.00
2018-08-27T05:28:38.155Z,8.04
2018-08-27T05:29:38.031Z,8.02
2018-08-27T05:30:37.946Z,8.00
2018-08-27T05:31:37.774Z,8.10
2018-08-27T05:32:37.646Z,8.11
2018-08-27T05:33:37.518Z,8.21
2018-08-27T05:34:37.392Z,8.22
2018-08-27T05:35:37.266Z,8.17
2018-08-27T05:36:37.137Z,8.17
2018-08-27T05:37:37.016Z,8.15
2018-08-27T05:38:36.968Z,8.22
2018-08-27T05:39:36.761Z,8.18
2018-08-27T05:40:36.632Z,8.10
2018-08-27T05:41:36.503Z,8.12
2018-08-27T05:42:36.380Z,8.03
2018-08-27T05:43:36.256Z,7.99
2018-08-27T05:44:36.205Z,7.94
2018-08-27T05:45:36.032Z,7.85
2018-08-27T05:46:35.870Z,7.75
2018-08-27T05:47:35.778Z,7.63
2018-08-27T05:48:35.617Z,7.67
2018-08-27T05:49:35.491Z,7.60
2018-08-27T05:50:35.363Z,7.69
2018-08-27T05:51:35.236Z,7.77
2018-08-27T05:52:35.113Z,7.84
2018-08-27T05:53:34.985Z,7.82
2018-08-27T05:54:34.857Z,7.90
2018-08-27T05:55:34.737Z,7.94
2018-08-27T05:56:34.609Z,7.96
2018-08-27T05:57:34.476Z,8.02
2018-08-27T05:58:34.348Z,8.11
2018-08-27T05:59:34.225Z,8.14
2018-08-27T06:00:34.098Z,8.18
2018-08-27T06:01:33.997Z,8.17
2018-08-27T06:02:33.843Z,8.28
2018-08-27T06:03:33.718Z,8.32
2018-08-27T06:04:33.591Z,8.42
2018-08-27T06:05:33.466Z,8.33
2018-08-27T06:06:33.339Z,8.44
2018-08-27T06:07:33.211Z,8.42
2018-08-27T06:08:33.085Z,8.47
2018-08-27T06:09:32.958Z,8.39
2018-08-27T06:10:32.835Z,8.37
2018-08-27T06:11:32.706Z,8.37
2018-08-27T06:12:32.585Z,8.42
2018-08-27T06:13:32.457Z,8.48
2018-08-27T06:14:32.328Z,8.44
2018-08-27T06:15:32.202Z,8.47
2018-08-27T06:16:32.132Z,8.54
2018-08-27T06:17:31.949Z,8.48
2018-08-27T06:18:31.821Z,8.57
2018-08-27T06:19:31.696Z,8.44
2018-08-27T06:20:31.578Z,8.50
2018-08-27T06:21:31.442Z,8.42
2018-08-27T06:22:31.319Z,8.54
2018-08-27T06:23:31.190Z,8.47
2018-08-27T06:24:31.068Z,8.62
2018-08-27T06:25:30.942Z,8.58
2018-08-27T06:26:30.813Z,8.65
2018-08-27T06:27:30.688Z,8.66
2018-08-27T06:28:30.563Z,8.84
2018-08-27T06:29:30.435Z,9.06
2018-08-27T06:30:30.309Z,9.20
2018-08-27T06:31:30.186Z,9.46
2018-08-27T06:32:30.088Z,9.57
2018-08-27T06:33:29.931Z,9.78
2018-08-27T06:34:29.806Z,9.88
2018-08-27T06:35:29.680Z,9.85
2018-08-27T06:36:29.555Z,9.99
2018-08-27T06:37:29.431Z,9.93
2018-08-27T06:38:29.305Z,9.81
2018-08-27T06:39:29.178Z,9.81
2018-08-27T06:40:29.049Z,9.81
2018-08-27T06:41:28.924Z,9.76
2018-08-27T06:42:28.799Z,9.82
2018-08-27T06:43:28.673Z,9.99
2018-08-27T06:44:28.551Z,10.04
2018-08-27T06:45:28.422Z,10.22
2018-08-27T06:46:28.297Z,10.44
2018-08-27T06:47:28.172Z,10.52
2018-08-27T06:48:28.042Z,10.58
2018-08-27T06:49:27.916Z,10.71
2018-08-27T06:50:27.794Z,10.92
2018-08-27T06:51:27.670Z,11.10
2018-08-27T06:52:27.540Z,11.16
2018-08-27T06:53:27.420Z,11.25
2018-08-27T06:54:27.292Z,11.28
2018-08-27T06:55:27.165Z,11.36
2018-08-27T06:56:27.045Z,11.61
2018-08-27T06:57:26.914Z,11.56
2018-08-27T06:58:26.788Z,11.72
2018-08-27T06:59:26.667Z,11.86
2018-08-27T07:00:26.538Z,12.06
2018-08-27T07:01:26.419Z,12.05
2018-08-27T07:02:26.294Z,12.05
2018-08-27T07:03:26.164Z,12.21
2018-08-27T07:04:26.045Z,12.26
2018-08-27T07:05:25.916Z,12.31
2018-08-27T07:06:25.790Z,12.33
2018-08-27T07:07:25.665Z,12.31
2018-08-27T07:08:25.540Z,12.51
2018-08-27T07:09:25.421Z,12.63
2018-08-27T07:10:25.296Z,12.51
2018-08-27T07:11:25.168Z,12.64
2018-08-27T07:12:25.044Z,12.63
2018-08-27T07:13:24.917Z,12.66
2018-08-27T07:14:24.798Z,12.74
2018-08-27T07:15:24.670Z,12.71
2018-08-27T07:16:24.545Z,12.79
2018-08-27T07:17:24.422Z,12.75
2018-08-27T07:18:24.298Z,12.77
2018-08-27T07:19:24.174Z,12.70
2018-08-27T07:20:24.118Z,12.81
2018-08-27T07:21:23.926Z,13.00
2018-08-27T07:22:23.801Z,13.03
2018-08-27T07:23:23.679Z,13.14
2018-08-27T07:24:23.552Z,13.36
2018-08-27T07:25:23.428Z,13.43
2018-08-27T07:26:23.307Z,13.55
2018-08-27T07:27:23.230Z,13.61
2018-08-27T07:28:23.059Z,13.79
2018-08-27T07:29:22.935Z,13.73
2018-08-27T07:30:22.812Z,13.67
2018-08-27T07:31:22.686Z,13.71
2018-08-27T07:32:22.563Z,13.79
2018-08-27T07:33:22.439Z,13.81
2018-08-27T07:34:22.318Z,13.77
2018-08-27T07:35:22.200Z,13.89
2018-08-27T07:36:22.085Z,13.96
2018-08-27T07:37:21.947Z,14.14
2018-08-27T07:38:21.824Z,14.42
2018-08-27T07:39:21.703Z,14.38
2018-08-27T07:40:21.575Z,14.61
2018-08-27T07:41:21.456Z,14.56
2018-08-27T07:42:21.331Z,14.54
2018-08-27T07:43:21.220Z,14.35
2018-08-27T07:44:21.085Z,14.47
2018-08-27T07:45:20.962Z,14.47
2018-08-27T07:46:20.842Z,14.60
2018-08-27T07:47:20.716Z,14.65
2018-08-27T07:48:20.593Z,14.72
2018-08-27T07:49:20.472Z,14.80
2018-08-27T07:50:20.349Z,14.93
2018-08-27T07:51:20.320Z,15.08
2018-08-27T07:52:20.107Z,15.12
2018-08-27T07:53:19.984Z,15.12
2018-08-27T07:54:19.860Z,15.24
2018-08-27T07:55:19.738Z,15.36
2018-08-27T07:56:19.614Z,15.35
2018-08-27T07:57:19.489Z,15.36
2018-08-27T07:58:19.409Z,15.20
2018-08-27T07:59:19.247Z,15.11
2018-08-27T08:00:19.122Z,15.19
2018-08-27T08:01:19.004Z,15.05
2018-08-27T08:02:18.916Z,15.02
2018-08-27T08:03:18.759Z,15.27
2018-08-27T08:04:18.635Z,15.27
2018-08-27T08:05:18.564Z,15.28
2018-08-27T08:06:18.392Z,15.56
2018-08-27T08:07:18.330Z,15.56
2018-08-27T08:08:18.149Z,15.43
2018-08-27T08:09:18.024Z,15.45
2018-08-27T08:10:17.907Z,15.60
2018-08-27T08:11:17.809Z,15.64
2018-08-27T08:12:17.658Z,15.60
2018-08-27T08:13:17.542Z,15.66
2018-08-27T08:14:17.420Z,15.70
2018-08-27T08:15:17.300Z,15.75
2018-08-27T08:16:17.174Z,15.66
2018-08-27T08:17:17.050Z,15.54
2018-08-27T08:18:16.929Z,15.48
2018-08-27T08:19:16.810Z,15.61
2018-08-27T08:20:16.687Z,15.72
2018-08-27T08:21:16.565Z,15.96
2018-08-27T08:22:16.444Z,15.94
2018-08-27T08:23:16.342Z,16.14
2018-08-27T08:24:16.199Z,15.99
2018-08-27T08:25:16.079Z,15.85
2018-08-27T08:26:15.960Z,15.93
2018-08-27T08:27:15.836Z,15.12
2018-08-27T08:28:15.716Z,14.52
2018-08-27T08:29:15.597Z,14.29
2018-08-27T08:30:15.477Z,14.69
2018-08-27T08:31:15.353Z,14.99
2018-08-27T08:32:15.231Z,15.52
2018-08-27T08:33:15.175Z,16.01
2018-08-27T08:34:14.988Z,16.37
2018-08-27T08:35:14.869Z,16.62
2018-08-27T08:36:14.745Z,16.78
2018-08-27T08:37:14.637Z,16.81
2018-08-27T08:38:14.504Z,16.81
2018-08-27T08:39:14.383Z,16.71
2018-08-27T08:40:14.322Z,16.67
2018-08-27T08:41:14.141Z,16.41
2018-08-27T08:42:14.019Z,16.18
2018-08-27T08:43:13.898Z,15.94
2018-08-27T08:44:13.779Z,16.15
2018-08-27T08:45:13.657Z,16.27
2018-08-27T08:46:13.536Z,16.40
2018-08-27T08:47:13.414Z,16.48
2018-08-27T08:48:13.291Z,16.44
2018-08-27T08:49:13.176Z,16.52
2018-08-27T08:50:13.049Z,16.70
2018-08-27T08:51:12.929Z,16.85
2018-08-27T08:52:12.809Z,16.85
2018-08-27T08:53:12.688Z,16.96
2018-08-27T08:54:12.567Z,17.03
2018-08-27T08:55:12.445Z,16.85
2018-08-27T08:56:12.340Z,16.88
2018-08-27T08:57:12.202Z,16.95
2018-08-27T08:58:12.083Z,17.13
2018-08-27T08:59:11.964Z,16.99
2018-08-27T09:00:11.840Z,17.14
2018-08-27T09:01:11.752Z,17.20
2018-08-27T09:02:11.600Z,17.13
2018-08-27T09:03:11.480Z,17.30
2018-08-27T09:04:11.365Z,17.30
2018-08-27T09:05:11.239Z,17.35
2018-08-27T09:06:11.159Z,17.50
2018-08-27T09:07:10.998Z,17.54
2018-08-27T09:08:10.963Z,17.67
2018-08-27T09:09:10.759Z,17.78
2018-08-27T09:10:10.636Z,18.07
2018-08-27T09:11:10.517Z,18.29
2018-08-27T09:12:10.397Z,18.25
2018-08-27T09:13:10.276Z,18.17
2018-08-27T09:14:10.156Z,18.21
2018-08-27T09:15:10.038Z,18.00
2018-08-27T09:16:09.915Z,17.91
2018-08-27T09:17:09.856Z,17.89
2018-08-27T09:18:09.676Z,18.03
2018-08-27T09:19:09.558Z,18.15
2018-08-27T09:20:09.435Z,18.02
2018-08-27T09:21:09.317Z,18.27
2018-08-27T09:22:09.198Z,18.21
2018-08-27T09:23:09.077Z,18.17
2018-08-27T09:24:08.958Z,17.92
2018-08-27T09:25:08.840Z,17.92
2018-08-27T09:26:08.720Z,18.03
2018-08-27T09:27:08.598Z,18.09
2018-08-27T09:28:08.477Z,18.06
2018-08-27T09:29:08.363Z,18.09
2018-08-27T09:30:08.239Z,18.13
2018-08-27T09:31:08.123Z,18.03
2018-08-27T09:32:08.005Z,18.17
2018-08-27T09:33:07.974Z,18.36
2018-08-27T09:34:07.763Z,18.43
2018-08-27T09:35:07.641Z,18.46
2018-08-27T09:36:07.519Z,18.80
2018-08-27T09:37:07.568Z,19.01
2018-08-27T09:38:07.285Z,19.15
2018-08-27T09:39:07.161Z,19.02
2018-08-27T09:40:07.043Z,19.15
2018-08-27T09:41:06.923Z,19.23
2018-08-27T09:42:06.803Z,19.25
2018-08-27T09:43:06.688Z,19.17
2018-08-27T09:44:06.566Z,19.24
2018-08-27T09:45:06.445Z,19.08
2018-08-27T09:46:06.329Z,19.15
2018-08-27T09:47:06.212Z,19.13
2018-08-27T09:48:06.090Z,19.17
2018-08-27T09:49:05.970Z,19.24
2018-08-27T09:50:05.851Z,19.36
2018-08-27T09:51:05.730Z,19.13
2018-08-27T09:52:05.612Z,19.32
2018-08-27T09:53:05.536Z,19.54
2018-08-27T09:54:05.374Z,19.66
2018-08-27T09:55:05.254Z,19.78
2018-08-27T09:56:05.134Z,19.46
2018-08-27T09:57:05.015Z,19.54
2018-08-27T09:58:04.899Z,19.70
2018-08-27T09:59:04.818Z,19.63
2018-08-27T10:00:04.661Z,19.53
2018-08-27T10:01:04.540Z,19.47
2018-08-27T10:02:04.422Z,19.53
2018-08-27T10:03:04.306Z,19.72
2018-08-27T10:04:04.184Z,20.00
2018-08-27T10:05:04.067Z,20.23
2018-08-27T10:06:03.945Z,20.21
2018-08-27T10:07:03.827Z,20.38
2018-08-27T10:08:03.713Z,20.21
2018-08-27T10:09:03.671Z,20.05
2018-08-27T10:10:03.472Z,20.02
2018-08-27T10:11:03.354Z,19.80
2018-08-27T10:12:03.234Z,19.76
2018-08-27T10:13:03.117Z,19.66
2018-08-27T10:14:02.999Z,19.58
2018-08-27T10:15:02.921Z,19.79
2018-08-27T10:16:02.759Z,19.88
2018-08-27T10:17:02.643Z,20.16
2018-08-27T10:18:02.523Z,19.88
2018-08-27T10:19:02.416Z,19.73
2018-08-27T10:20:02.288Z,20.02
2018-08-27T10:21:02.169Z,20.12
2018-08-27T10:22:02.113Z,20.31
2018-08-27T10:23:01.932Z,20.35
2018-08-27T10:24:01.813Z,20.38
2018-08-27T10:25:01.697Z,20.58
2018-08-27T10:26:01.578Z,20.87
2018-08-27T10:27:01.462Z,21.19
2018-08-27T10:28:01.342Z,21.46
2018-08-27T10:29:01.230Z,21.67
2018-08-27T10:30:01.108Z,21.69
2018-08-27T10:31:00.990Z,21.76
2018-08-27T10:32:00.874Z,21.82
2018-08-27T10:33:00.758Z,21.85
2018-08-27T10:34:00.637Z,21.91
2018-08-27T10:35:00.520Z,21.54
2018-08-27T10:36:00.404Z,21.51
2018-08-27T10:37:00.291Z,21.29
2018-08-27T10:38:00.169Z,21.13
2018-08-27T10:39:00.052Z,21.27
2018-08-27T10:39:59.935Z,21.54
2018-08-27T10:40:59.819Z,21.44
2018-08-27T10:41:59.702Z,21.41
2018-08-27T10:42:59.586Z,21.14
2018-08-27T10:43:59.467Z,21.11
2018-08-27T10:44:59.353Z,21.38
2018-08-27T10:45:59.236Z,21.59
2018-08-27T10:46:59.118Z,21.41
2018-08-27T10:47:59.001Z,21.51
2018-08-27T10:48:58.883Z,21.66
2018-08-27T10:49:58.790Z,22.12
2018-08-27T10:50:58.655Z,21.98
2018-08-27T10:51:58.532Z,22.32
2018-08-27T10:52:58.423Z,22.39
2018-08-27T10:53:58.299Z,22.71
2018-08-27T10:54:58.187Z,22.71
2018-08-27T10:55:58.072Z,22.77
2018-08-27T10:56:57.953Z,23.12
2018-08-27T10:57:57.834Z,23.15
2018-08-27T10:58:57.722Z,23.35
2018-08-27T10:59:57.604Z,23.50
2018-08-27T11:00:57.491Z,23.39
2018-08-27T11:01:57.370Z,23.62
2018-08-27T11:02:57.257Z,23.79
2018-08-27T11:03:57.139Z,23.90
2018-08-27T11:04:57.024Z,24.19
2018-08-27T11:05:56.908Z,24.24
2018-08-27T11:06:56.792Z,23.92
2018-08-27T11:07:56.677Z,23.82
2018-08-27T11:08:56.570Z,23.57
2018-08-27T11:09:56.447Z,23.45
2018-08-27T11:10:56.332Z,23.55
2018-08-27T11:11:56.218Z,23.80
2018-08-27T11:12:56.102Z,23.70
2018-08-27T11:13:55.986Z,23.65
2018-08-27T11:14:55.871Z,23.42
2018-08-27T11:15:55.760Z,23.58
2018-08-27T11:16:55.644Z,23.87
2018-08-27T11:17:55.528Z,24.02
2018-08-27T11:18:55.414Z,24.35
2018-08-27T11:19:55.362Z,24.39
2018-08-27T11:20:55.183Z,24.49
2018-08-27T11:21:55.073Z,24.01
2018-08-27T11:22:54.952Z,23.75
2018-08-27T11:23:54.837Z,23.87
2018-08-27T11:24:54.726Z,23.85
2018-08-27T11:25:54.607Z,23.76
2018-08-27T11:26:54.497Z,23.43
2018-08-27T11:27:54.383Z,23.42
2018-08-27T11:28:54.266Z,23.24
2018-08-27T11:29:54.146Z,23.23
2018-08-27T11:30:54.034Z,23.12
2018-08-27T11:31:53.923Z,23.67
2018-08-27T11:32:53.839Z,23.64
2018-08-27T11:33:53.688Z,23.77
2018-08-27T11:34:53.575Z,24.08
2018-08-27T11:35:53.457Z,24.41
2018-08-27T11:36:53.341Z,24.39
2018-08-27T11:37:53.226Z,24.53
2018-08-27T11:38:53.113Z,24.41
2018-08-27T11:39:52.996Z,24.56
2018-08-27T11:40:52.882Z,24.85
2018-08-27T11:41:52.767Z,24.83
2018-08-27T11:42:52.652Z,25.09
2018-08-27T11:43:52.538Z,25.30
2018-08-27T11:44:52.424Z,25.47
2018-08-27T11:45:52.312Z,25.64
2018-08-27T11:46:52.197Z,25.56
2018-08-27T11:47:52.080Z,25.72
2018-08-27T11:48:51.965Z,25.87
2018-08-27T11:49:51.854Z,25.65
2018-08-27T11:50:51.831Z,25.02
2018-08-27T11:51:51.627Z,24.53
2018-08-27T11:52:51.514Z,24.59
2018-08-27T11:53:51.399Z,24.76
2018-08-27T11:54:51.290Z,24.64
2018-08-27T11:55:51.168Z,24.52
2018-08-27T11:56:51.055Z,24.60
2018-08-27T11:57:50.943Z,24.83
2018-08-27T11:58:50.829Z,24.83
2018-08-27T11:59:50.713Z,24.88
2018-08-27T12:00:50.617Z,25.06
2018-08-27T12:01:50.483Z,24.76
2018-08-27T12:02:50.372Z,24.92
2018-08-27T12:03:50.257Z,25.13
2018-08-27T12:04:50.143Z,25.17
2018-08-27T12:05:50.034Z,25.69
2018-08-27T12:06:49.915Z,26.02
2018-08-27T12:07:49.798Z,25.99
2018-08-27T12:08:49.694Z,26.17
2018-08-27T12:09:49.572Z,25.64
2018-08-27T12:10:49.460Z,25.43
2018-08-27T12:11:49.358Z,25.52
2018-08-27T12:12:49.230Z,25.19
2018-08-27T12:13:49.119Z,25.28
2018-08-27T12:14:49.007Z,25.32
2018-08-27T12:15:48.893Z,25.62
2018-08-27T12:16:48.877Z,24.95
2018-08-27T12:17:48.665Z,24.69
2018-08-27T12:18:48.552Z,24.64
2018-08-27T12:19:48.438Z,24.54
2018-08-27T12:20:48.329Z,24.92
2018-08-27T12:21:48.210Z,23.64
2018-08-27T12:22:48.095Z,23.45
2018-08-27T12:23:48.057Z,23.42
2018-08-27T12:24:47.867Z,22.64
2018-08-27T12:25:47.752Z,22.09
2018-08-27T12:26:47.646Z,22.04
2018-08-27T12:27:47.526Z,21.69
2018-08-27T12:28:47.414Z,21.45
2018-08-27T12:29:47.298Z,21.21
2018-08-27T12:30:47.210Z,21.38
2018-08-27T12:31:47.066Z,21.67
2018-08-27T12:32:46.952Z,22.34
2018-08-27T12:33:46.848Z,22.96
2018-08-27T12:34:46.720Z,23.65
2018-08-27T12:35:46.606Z,24.64
2018-08-27T12:36:46.494Z,25.00
2018-08-27T12:37:46.409Z,25.97
2018-08-27T12:38:46.290Z,26.55
2018-08-27T12:39:46.183Z,26.01
2018-08-27T12:40:46.097Z,24.97
2018-08-27T12:41:45.918Z,25.52
2018-08-27T12:42:45.802Z,26.29
2018-08-27T12:43:45.768Z,25.83
2018-08-27T12:44:45.575Z,25.05
2018-08-27T12:45:45.457Z,24.80
2018-08-27T12:46:45.342Z,24.26
2018-08-27T12:47:45.226Z,23.61
2018-08-27T12:48:45.115Z,24.16
2018-08-27T12:49:45.000Z,24.08
2018-08-27T12:50:44.951Z,24.73
2018-08-27T12:51:44.769Z,24.37
2018-08-27T12:52:44.658Z,24.77
2018-08-27T12:53:44.545Z,25.65
2018-08-27T12:54:44.427Z,25.31
2018-08-27T12:55:44.315Z,25.16
2018-08-27T12:56:44.197Z,24.69
2018-08-27T12:57:44.085Z,24.64
2018-08-27T12:58:43.973Z,25.00
2018-08-27T12:59:43.855Z,25.43
2018-08-27T13:00:43.736Z,25.32
2018-08-27T13:01:43.627Z,25.24
2018-08-27T13:02:43.511Z,24.83
2018-08-27T13:03:43.395Z,24.91